Fort Klamath, Oregon
Current Conditions -  °F | °C
As of 1:53 PM on Wednesday 28 Jan 2015 (Local Time) from KLMT Reporting Station
Clear Clear  
Wind Chill: 11°   Ceiling: Unl
Heat Index: 11°   Visibility: 10mi
Dew Point: -1°   Wind: 0mph
Humidity: 43%   Direction: NA
Pressure: 30.28"   Gusts: NA
Location:  42.7°N, 122°W
Report Text: KLMT 282153Z 00000KT 10SM CLR 11/M01 A3028 RMK AO2 SLP252 T01111011
Loading
Personal Weather Stations






























Interactive Weather Map New forecast layout! Learn more

10-Day Weather Forecast

Advertisements
Track Severe Weather on mobile